Accueil
METAR-TAF:

METAR-TAF

Aéroports :

Orange, France

Base aérienne 115 Orange-Caritat

latitude: 44-08N, longitude: 004-50E, altitude: 60 m

Observation

Le bulletin a été fait il y a 30 minutes, à 10:30 UTC
Vent 2 kt de direction variable
Température 12°C
Humidité 58%
Pression 1019 hPa
Visibilité 10 km ou plus
Quelques nuages à une hauteur de 2100 ft

METAR: LFMO 221030Z AUTO VRB02KT 9999 FEW021 12/04 Q1019 NOSIG

Heure: 12:00 (11:00 UTC)

Prévision

Le bulletin a été fait il y a 3 heures et 0 minutes, à 08:00 UTC
Prévision valable du 22 à 09 UTC au 23 à 09 UTC
Vent 2 kt de direction variable
Visibilité 10 km ou plus
pas de nuages en-dessous de 1500 mètres et pas de cumulonimbus.
Evoluant progressivement
du 22 à 12 UTC au 22 à 14 UTC
Vent 10 kt de sud
Evoluant progressivement
du 22 à 16 UTC au 22 à 18 UTC
Nuages fragmentés à une hauteur de 2500 ft

TAF: LFMO 220800Z 2209/2309 VRB02KT CAVOK BECMG 2212/2214 18010KT BECMG 2216/2218 BKN025

Observations et prévisions météorologiques de plus de 4000 aéroports (messages METAR et TAF).

Les stations disponibles sont représentées par des disques jaunes et rouges sur la carte.

Passer la souris dessus pour voir le nom de la station.

Cliquer dessus pour voir les observations et prévisions météorologiques.

Pour changer de carte: cliquez sur les boutons verts avec une croix noire pour zoomer, sur le bouton vert avec un tiret pour effectuer un zoom arrière, ou sur les flèches vertes pour les cartes adjacentes.


METAR-TAF: